Madison, AL (35757)

3:45 AM CDT on July 31, 2015 (GMT -0500)
The Bend | | Change Station
CLOSE
Current Station
Personal Weather Station
Location: Madison, AL
Elevation: 794 ft
Nearby Weather Stations

Elev 794 ft 34.79 °N, 86.74 °W | Updated 5 minutes ago

Clear
Clear
69.8 °F
Feels Like 69.8 °F
N
3.1
Wind Variable Wind from NNE
Gusts 5.4 mph

Today
High -- | Low -- °F
--% Chance of Precip.
Yesterday
High -- | Low -- °F
Precip. -- in
5:55 AM 7:50 PM
Full, 100% visible
Pressure 29.99 in
Visibility 10.0 miles
Clouds Clear
Dew Point 63 °F
Humidity 80%
Rainfall 0.00 in
Snow Depth Not available.
UV 0 out of 12
Pollen 2.80 out of 12
Air Quality Not available.
Flu Activity Not available.
METAR KHUA 310758Z AUTO 02003KT 10SM CLR 20/17 A3001 RMK AO2 SLP156 T01980165

More Conditions Fewer Conditions

Pressure 29.99 in
Visibility 10.0 miles
Clouds Clear
Dew Point 63 °F
Humidity 80%
Rainfall 0.00 in
Snow Depth Not available.
UV 0 out of 12
Pollen 2.80 out of 12
Air Quality Not available.
Flu Activity Not available.
METAR KHUA 310758Z AUTO 02003KT 10SM CLR 20/17 A3001 RMK AO2 SLP156 T01980165

More Conditions Fewer Conditions

10-Day Weather Forecast

×

Almanac

Astronomy

Jul. 31, 2015 Rise Set
Actual Time
Civil Twilight
Nautical Twilight
Astronomical Twilight
Moon
Length of Visible Light
Length of Day
Tomorrow will be .
, % of the Moon is Illuminated

Today's Extremes

State Highs State Lows

Community

WunderPhotos

Upload Photos

1,842,633 photos uploaded!

WunderBlogs® & News

Nearby

Air Quality

  Air Quality AQ Index Pollutant
Not available.

Snow Depth

Station Depth Elevation

Earthquake Activity

City Distance Mag. Time & Date
Minimum magnitude displayed is 2.5.

Coastal Water Temperatures

Place Temperature

Stations

Nearby Weather Stations

Station Location Temp. Windchill Dew Point Humidity Wind Precip. Elev Updated Type